createdAt,value
2018-12-10T00:02:27.823Z,7.60
2018-12-10T00:04:58.458Z,7.66
2018-12-10T00:07:29.106Z,7.46
2018-12-10T00:09:57.847Z,7.33
2018-12-10T00:12:26.587Z,7.41
2018-12-10T00:14:55.288Z,7.54
2018-12-10T00:17:24.006Z,7.55
2018-12-10T00:19:53.715Z,7.66
2018-12-10T00:22:22.460Z,7.54
2018-12-10T00:24:51.118Z,7.42
2018-12-10T00:27:19.787Z,7.61
2018-12-10T00:29:48.455Z,7.54
2018-12-10T00:32:17.116Z,7.34
2018-12-10T00:34:45.851Z,7.51
2018-12-10T00:37:14.547Z,7.39
2018-12-10T00:39:43.273Z,7.45
2018-12-10T00:42:12.006Z,7.29
2018-12-10T00:44:40.684Z,7.46
2018-12-10T00:47:09.427Z,7.34
2018-12-10T00:49:38.104Z,7.48
2018-12-10T00:52:06.841Z,7.50
2018-12-10T00:54:35.581Z,7.29
2018-12-10T00:57:04.319Z,7.07
2018-12-10T00:59:33.050Z,7.18
2018-12-10T01:02:01.807Z,7.43
2018-12-10T01:04:30.535Z,7.18
2018-12-10T01:06:59.279Z,7.17
2018-12-10T01:09:28.094Z,7.32
2018-12-10T01:11:56.836Z,7.15
2018-12-10T01:14:25.494Z,7.52
2018-12-10T01:16:54.227Z,7.76
2018-12-10T01:19:22.978Z,7.56
2018-12-10T01:21:51.727Z,7.20
2018-12-10T01:24:20.487Z,7.47
2018-12-10T01:26:49.170Z,7.30
2018-12-10T01:29:17.842Z,7.46
2018-12-10T01:31:46.598Z,7.38
2018-12-10T01:34:15.263Z,7.35
2018-12-10T01:36:44.002Z,7.40
2018-12-10T01:39:12.723Z,7.33
2018-12-10T01:41:43.289Z,7.25
2018-12-10T01:44:12.158Z,7.49
2018-12-10T01:46:40.826Z,7.26
2018-12-10T01:49:09.547Z,7.28
2018-12-10T01:51:38.311Z,7.42
2018-12-10T01:54:07.062Z,7.38
2018-12-10T01:56:35.801Z,7.35
2018-12-10T01:59:04.539Z,7.47
2018-12-10T02:01:33.271Z,6.86
2018-12-10T02:04:01.959Z,6.95
2018-12-10T02:06:30.617Z,7.23
2018-12-10T02:08:59.362Z,7.30
2018-12-10T02:11:28.063Z,7.26
2018-12-10T02:13:56.743Z,7.53
2018-12-10T02:16:25.471Z,7.58
2018-12-10T02:18:54.151Z,7.36
2018-12-10T02:21:22.832Z,7.24
2018-12-10T02:23:51.512Z,7.18
2018-12-10T02:26:20.283Z,7.28
2018-12-10T02:28:54.427Z,7.25
2018-12-10T02:31:23.200Z,7.25
2018-12-10T02:33:51.883Z,7.02
2018-12-10T02:36:20.659Z,6.86
2018-12-10T02:38:49.414Z,7.05
2018-12-10T02:41:18.151Z,7.09
2018-12-10T02:43:46.926Z,6.98
2018-12-10T02:46:15.667Z,6.91
2018-12-10T02:48:44.344Z,6.97
2018-12-10T02:51:14.176Z,6.95
2018-12-10T02:53:42.879Z,6.81
2018-12-10T02:56:11.547Z,6.44
2018-12-10T02:58:40.276Z,6.82
2018-12-10T03:01:09.012Z,6.92
2018-12-10T03:03:37.831Z,7.28
2018-12-10T03:06:07.535Z,7.51
2018-12-10T03:08:36.270Z,7.37
2018-12-10T03:11:05.052Z,7.26
2018-12-10T03:13:33.734Z,7.02
2018-12-10T03:16:02.583Z,6.92
2018-12-10T03:18:31.314Z,7.08
2018-12-10T03:21:00.011Z,7.42
2018-12-10T03:23:28.711Z,7.28
2018-12-10T03:25:57.451Z,7.24
2018-12-10T03:28:26.158Z,7.17
2018-12-10T03:30:54.903Z,7.25
2018-12-10T03:33:23.743Z,7.16
2018-12-10T03:35:52.532Z,7.24
2018-12-10T03:38:21.210Z,7.07
2018-12-10T03:40:49.960Z,7.30
2018-12-10T03:43:18.642Z,7.28
2018-12-10T03:45:47.366Z,7.30
2018-12-10T03:48:16.123Z,7.16
2018-12-10T03:50:44.794Z,6.85
2018-12-10T03:53:13.536Z,6.94
2018-12-10T03:55:42.255Z,6.83
2018-12-10T03:58:10.927Z,6.85
2018-12-10T04:00:39.599Z,7.05
2018-12-10T04:03:08.340Z,6.95
2018-12-10T04:05:37.056Z,6.87
2018-12-10T04:08:05.899Z,6.61
2018-12-10T04:10:34.690Z,6.70
2018-12-10T04:13:03.434Z,6.71
2018-12-10T04:15:32.199Z,6.92
2018-12-10T04:18:00.935Z,6.68
2018-12-10T04:20:29.691Z,6.87
2018-12-10T04:22:58.372Z,6.47
2018-12-10T04:25:29.027Z,6.53
2018-12-10T04:27:57.696Z,6.53
2018-12-10T04:30:26.442Z,6.29
2018-12-10T04:32:55.122Z,6.43
2018-12-10T04:35:23.907Z,6.20
2018-12-10T04:37:52.603Z,6.47
2018-12-10T04:40:21.338Z,6.55
2018-12-10T04:42:50.079Z,6.73
2018-12-10T04:45:18.830Z,6.61
2018-12-10T04:47:47.591Z,6.49
2018-12-10T04:50:16.354Z,6.66
2018-12-10T04:52:45.038Z,6.36
2018-12-10T04:55:13.771Z,6.74
2018-12-10T04:57:42.656Z,6.61
2018-12-10T05:00:11.364Z,6.73
2018-12-10T05:02:40.099Z,6.60
2018-12-10T05:05:08.759Z,6.51
2018-12-10T05:07:37.498Z,6.65
2018-12-10T05:10:06.423Z,6.46
2018-12-10T05:12:35.104Z,6.53
2018-12-10T05:15:04.080Z,6.49
2018-12-10T05:17:32.806Z,6.62
2018-12-10T05:20:01.963Z,6.38
2018-12-10T05:22:30.663Z,6.27
2018-12-10T05:24:59.335Z,6.30
2018-12-10T05:27:28.061Z,6.13
2018-12-10T05:29:56.842Z,6.49
2018-12-10T05:32:25.559Z,6.28
2018-12-10T05:34:54.243Z,6.19
2018-12-10T05:37:22.915Z,6.19
2018-12-10T05:39:51.663Z,6.40
2018-12-10T05:42:21.418Z,6.33
2018-12-10T05:44:50.166Z,6.17
2018-12-10T05:47:18.831Z,6.24
2018-12-10T05:49:47.543Z,6.17
2018-12-10T05:52:16.202Z,6.27
2018-12-10T05:54:45.291Z,6.29
2018-12-10T05:57:13.955Z,6.33
2018-12-10T05:59:42.616Z,6.27
2018-12-10T06:02:11.326Z,6.48
2018-12-10T06:04:40.794Z,6.56
2018-12-10T06:07:09.522Z,6.35
2018-12-10T06:09:38.193Z,6.22
2018-12-10T06:12:06.923Z,6.35
2018-12-10T06:14:35.643Z,6.30
2018-12-10T06:17:04.378Z,6.43
2018-12-10T06:19:33.088Z,6.37
2018-12-10T06:22:01.782Z,6.29
2018-12-10T06:24:30.450Z,6.34
2018-12-10T06:26:59.152Z,6.39
2018-12-10T06:29:27.895Z,6.50
2018-12-10T06:31:56.640Z,6.53
2018-12-10T06:34:25.371Z,6.34
2018-12-10T06:36:54.103Z,6.15
2018-12-10T06:39:22.879Z,6.22
2018-12-10T06:41:51.562Z,6.38
2018-12-10T06:44:20.310Z,6.08
2018-12-10T06:46:49.050Z,6.08
2018-12-10T06:49:17.738Z,6.22
2018-12-10T06:51:46.419Z,6.24
2018-12-10T06:54:15.184Z,6.27
2018-12-10T06:56:43.875Z,6.32
2018-12-10T06:59:12.571Z,6.47
2018-12-10T07:01:41.578Z,6.51
2018-12-10T07:04:10.316Z,6.78
2018-12-10T07:06:39.114Z,6.77
2018-12-10T07:09:07.907Z,6.71
2018-12-10T07:11:36.691Z,6.68
2018-12-10T07:14:05.391Z,6.72
2018-12-10T07:16:34.070Z,6.37
2018-12-10T07:19:02.780Z,6.25
2018-12-10T07:21:31.590Z,6.45
2018-12-10T07:24:00.347Z,6.49
2018-12-10T07:26:29.014Z,6.45
2018-12-10T07:28:57.691Z,6.42
2018-12-10T07:31:26.490Z,6.31
2018-12-10T07:33:55.190Z,6.29
2018-12-10T07:36:23.906Z,6.51
2018-12-10T07:38:52.590Z,6.41
2018-12-10T07:41:21.252Z,6.13
2018-12-10T07:43:49.987Z,6.16
2018-12-10T07:46:18.695Z,6.41
2018-12-10T07:48:47.362Z,6.39
2018-12-10T07:51:16.075Z,6.40
2018-12-10T07:53:44.806Z,6.42
2018-12-10T07:56:13.511Z,6.55
2018-12-10T07:58:42.203Z,6.61
2018-12-10T08:01:12.247Z,6.56
2018-12-10T08:03:41.111Z,6.64
2018-12-10T08:06:09.819Z,6.78
2018-12-10T08:08:38.538Z,6.50
2018-12-10T08:11:07.318Z,6.62
2018-12-10T08:13:36.051Z,6.40
2018-12-10T08:16:04.771Z,6.41
2018-12-10T08:18:33.434Z,6.55
2018-12-10T08:21:02.699Z,6.39
2018-12-10T08:23:31.690Z,6.54
2018-12-10T08:26:00.695Z,6.27
2018-12-10T08:28:29.354Z,6.23
2018-12-10T08:30:58.100Z,6.29
2018-12-10T08:33:26.867Z,6.38
2018-12-10T08:35:55.574Z,6.43
2018-12-10T08:38:24.319Z,6.50
2018-12-10T08:40:53.052Z,6.74
2018-12-10T08:43:21.786Z,6.56
2018-12-10T08:45:50.492Z,6.43
2018-12-10T08:48:19.243Z,6.66
2018-12-10T08:50:47.967Z,6.81
2018-12-10T08:53:16.684Z,6.61
2018-12-10T08:55:45.330Z,6.63
2018-12-10T08:58:13.990Z,6.63
2018-12-10T09:00:42.731Z,6.59
2018-12-10T09:03:11.440Z,6.55
2018-12-10T09:05:40.147Z,6.64
2018-12-10T09:08:08.859Z,6.64
2018-12-10T09:10:37.583Z,6.55
2018-12-10T09:13:06.299Z,6.53
2018-12-10T09:15:34.952Z,6.58
2018-12-10T09:18:03.727Z,6.56
2018-12-10T09:20:32.407Z,6.70
2018-12-10T09:23:01.136Z,6.84
2018-12-10T09:25:29.854Z,6.73
2018-12-10T09:27:58.615Z,6.95
2018-12-10T09:30:27.331Z,7.01
2018-12-10T09:32:56.166Z,7.05
2018-12-10T09:35:25.993Z,6.95
2018-12-10T09:37:54.663Z,6.97
2018-12-10T09:40:23.350Z,6.93
2018-12-10T09:42:52.034Z,7.04
2018-12-10T09:45:20.773Z,6.86
2018-12-10T09:47:49.436Z,6.84
2018-12-10T09:50:18.299Z,6.72
2018-12-10T09:52:47.936Z,6.85
2018-12-10T09:55:16.779Z,6.96
2018-12-10T09:57:45.503Z,7.16
2018-12-10T10:00:14.264Z,6.99
2018-12-10T10:02:43.003Z,6.77
2018-12-10T10:05:11.730Z,6.67
2018-12-10T10:07:40.450Z,6.82
2018-12-10T10:10:09.191Z,6.85
2018-12-10T10:12:37.933Z,6.96
2018-12-10T10:15:06.663Z,6.97
2018-12-10T10:17:35.375Z,7.00
2018-12-10T10:20:04.306Z,7.04
2018-12-10T10:22:33.034Z,7.11
2018-12-10T10:25:01.707Z,7.11
2018-12-10T10:27:30.355Z,7.14
2018-12-10T10:29:59.056Z,6.94
2018-12-10T10:32:27.794Z,6.92
2018-12-10T10:34:56.531Z,6.73
2018-12-10T10:37:25.251Z,7.09
2018-12-10T10:39:53.926Z,6.95
2018-12-10T10:42:22.582Z,7.23
2018-12-10T10:44:51.304Z,7.32
2018-12-10T10:47:20.004Z,7.08
2018-12-10T10:49:48.735Z,7.29
2018-12-10T10:52:17.450Z,7.42
2018-12-10T10:54:46.138Z,7.22
2018-12-10T10:57:14.882Z,7.32
2018-12-10T10:59:43.563Z,7.39
2018-12-10T11:02:22.502Z,7.51
2018-12-10T11:04:51.583Z,7.28
2018-12-10T11:07:20.309Z,8.05
2018-12-10T11:09:49.040Z,7.84
2018-12-10T11:12:17.767Z,7.77
2018-12-10T11:14:46.558Z,7.38
2018-12-10T11:17:15.274Z,7.58
2018-12-10T11:19:44.011Z,7.36
2018-12-10T11:22:12.727Z,7.19
2018-12-10T11:24:41.510Z,7.38
2018-12-10T11:27:10.246Z,7.64
2018-12-10T11:29:39.014Z,7.67
2018-12-10T11:32:07.747Z,7.44
2018-12-10T11:34:36.468Z,7.43
2018-12-10T11:37:05.256Z,7.86
2018-12-10T11:39:33.954Z,7.82
2018-12-10T11:42:02.635Z,7.45
2018-12-10T11:44:33.459Z,7.62
2018-12-10T11:47:03.531Z,7.70
2018-12-10T11:49:32.227Z,7.59
2018-12-10T11:52:01.120Z,7.23
2018-12-10T11:54:30.715Z,7.71
2018-12-10T11:56:59.483Z,7.63
2018-12-10T11:59:28.220Z,7.60
2018-12-10T12:01:57.410Z,7.62
2018-12-10T12:04:26.143Z,7.60
2018-12-10T12:06:56.795Z,7.60
2018-12-10T12:09:25.526Z,7.89
2018-12-10T12:11:54.565Z,7.66
2018-12-10T12:14:23.394Z,7.45
2018-12-10T12:16:52.135Z,7.80
2018-12-10T12:19:20.865Z,7.58
2018-12-10T12:21:49.599Z,7.45
2018-12-10T12:24:18.338Z,7.52
2018-12-10T12:26:47.027Z,7.17
2018-12-10T12:29:15.747Z,7.59
2018-12-10T12:31:45.130Z,7.45
2018-12-10T12:34:13.947Z,7.27
2018-12-10T12:36:42.702Z,7.57
2018-12-10T12:39:11.723Z,7.72
2018-12-10T12:41:40.455Z,7.62
2018-12-10T12:44:09.490Z,7.44
2018-12-10T12:46:39.586Z,7.42
2018-12-10T12:49:08.615Z,7.67
2018-12-10T12:51:37.323Z,7.63
2018-12-10T12:54:06.487Z,6.64
2018-12-10T12:56:35.974Z,7.79
2018-12-10T12:59:04.730Z,7.75
2018-12-10T13:01:33.466Z,7.37
2018-12-10T13:04:02.151Z,7.58
2018-12-10T13:06:30.950Z,7.59
2018-12-10T13:09:00.812Z,7.89
2018-12-10T13:11:29.695Z,7.86
2018-12-10T13:13:58.375Z,7.75
2018-12-10T13:16:27.397Z,7.88
2018-12-10T13:18:56.554Z,7.73
2018-12-10T13:21:25.246Z,7.80
2018-12-10T13:23:53.990Z,8.06
2018-12-10T13:26:22.667Z,8.07
2018-12-10T13:28:51.347Z,8.22
2018-12-10T13:31:20.103Z,7.64
2018-12-10T13:33:48.779Z,7.50
2018-12-10T13:36:17.534Z,7.48
2018-12-10T13:38:46.304Z,7.53
2018-12-10T13:41:15.020Z,7.71
2018-12-10T13:43:43.762Z,7.73
2018-12-10T13:46:12.513Z,7.73
2018-12-10T13:48:41.250Z,7.77
2018-12-10T13:51:10.022Z,7.95
2018-12-10T13:53:38.715Z,7.98
2018-12-10T13:56:07.438Z,8.08
2018-12-10T13:58:36.178Z,8.21
2018-12-10T14:01:04.951Z,8.07
2018-12-10T14:03:34.203Z,8.21
2018-12-10T14:06:02.988Z,8.01
2018-12-10T14:08:31.787Z,8.01
2018-12-10T14:11:00.646Z,8.01
2018-12-10T14:13:29.411Z,8.05
2018-12-10T14:15:58.207Z,7.80
2018-12-10T14:18:26.967Z,7.90
2018-12-10T14:20:55.729Z,7.85
2018-12-10T14:23:24.503Z,7.72
2018-12-10T14:25:53.615Z,7.55
2018-12-10T14:28:22.391Z,7.83
2018-12-10T14:30:51.270Z,7.79
2018-12-10T14:33:20.012Z,7.93
2018-12-10T14:35:48.751Z,7.60
2018-12-10T14:38:17.499Z,7.59
2018-12-10T14:40:46.186Z,7.35
2018-12-10T14:43:14.950Z,7.52
2018-12-10T14:45:43.698Z,7.72
2018-12-10T14:48:12.860Z,7.42
2018-12-10T14:50:41.937Z,7.47
2018-12-10T14:53:10.780Z,7.59
2018-12-10T14:55:39.622Z,7.75
2018-12-10T14:58:08.413Z,7.87
2018-12-10T15:00:37.202Z,7.72
2018-12-10T15:03:05.969Z,7.71
2018-12-10T15:05:34.757Z,7.85
2018-12-10T15:08:03.491Z,7.59
2018-12-10T15:10:32.430Z,7.73
2018-12-10T15:13:01.121Z,7.57
2018-12-10T15:15:30.134Z,7.55
2018-12-10T15:17:58.816Z,7.28
2018-12-10T15:20:27.663Z,7.19
2018-12-10T15:22:56.414Z,7.21
2018-12-10T15:25:25.547Z,7.09
2018-12-10T15:27:54.275Z,6.88
2018-12-10T15:30:23.045Z,7.12
2018-12-10T15:32:51.819Z,7.10
2018-12-10T15:35:20.575Z,7.25
2018-12-10T15:37:49.333Z,7.01
2018-12-10T15:40:18.091Z,6.88
2018-12-10T15:42:47.691Z,6.89
2018-12-10T15:45:16.518Z,6.98
2018-12-10T15:47:45.263Z,7.16
2018-12-10T15:50:14.058Z,7.18
2018-12-10T15:52:42.838Z,7.34
2018-12-10T15:55:11.655Z,7.31
2018-12-10T15:57:41.400Z,7.50
2018-12-10T16:00:11.389Z,7.26
2018-12-10T16:02:42.489Z,7.26
2018-12-10T16:05:12.264Z,7.12
2018-12-10T16:07:41.771Z,7.18
2018-12-10T16:10:10.526Z,7.20
2018-12-10T16:12:40.568Z,7.02
2018-12-10T16:15:10.265Z,7.28
2018-12-10T16:17:40.634Z,7.26
2018-12-10T16:20:10.533Z,7.34
2018-12-10T16:22:39.590Z,7.34
2018-12-10T16:25:08.654Z,6.98
2018-12-10T16:27:37.927Z,6.60
2018-12-10T16:30:08.520Z,7.01
2018-12-10T16:32:37.990Z,6.89
2018-12-10T16:35:12.982Z,6.59
2018-12-10T16:37:42.633Z,6.74
2018-12-10T16:40:11.371Z,6.97
2018-12-10T16:42:40.063Z,6.86
2018-12-10T16:45:09.271Z,6.83
2018-12-10T16:47:37.958Z,6.97
2018-12-10T16:50:09.345Z,6.93
2018-12-10T16:52:39.005Z,6.83
2018-12-10T16:55:08.935Z,6.59
2018-12-10T16:57:38.428Z,6.33
2018-12-10T17:00:12.102Z,6.53
2018-12-10T17:02:41.707Z,6.74
2018-12-10T17:05:11.933Z,6.79
2018-12-10T17:07:41.243Z,6.39
2018-12-10T17:10:11.083Z,6.60
2018-12-10T17:12:40.186Z,6.58
2018-12-10T17:15:09.518Z,6.45
2018-12-10T17:17:39.833Z,6.52
2018-12-10T17:20:09.209Z,6.52
2018-12-10T17:22:39.493Z,6.40
2018-12-10T17:25:09.625Z,6.18
2018-12-10T17:27:40.277Z,6.41
2018-12-10T17:30:10.185Z,6.59
2018-12-10T17:32:39.793Z,6.47
2018-12-10T17:35:11.188Z,6.32
2018-12-10T17:37:40.782Z,6.66
2018-12-10T17:40:10.599Z,6.65
2018-12-10T17:42:40.225Z,6.58
2018-12-10T17:45:10.989Z,6.30
2018-12-10T17:47:40.659Z,6.30
2018-12-10T17:50:11.882Z,6.54
2018-12-10T17:52:41.462Z,6.82
2018-12-10T17:55:10.240Z,6.65
2018-12-10T17:57:39.861Z,6.81
2018-12-10T18:00:11.427Z,6.70
2018-12-10T18:02:41.918Z,6.54
2018-12-10T18:05:11.574Z,6.39
2018-12-10T18:07:41.180Z,6.66
2018-12-10T18:10:10.690Z,6.70
2018-12-10T18:12:40.283Z,6.67
2018-12-10T18:15:09.975Z,6.39
2018-12-10T18:17:39.605Z,6.67
2018-12-10T18:20:11.764Z,6.56
2018-12-10T18:22:41.501Z,6.76
2018-12-10T18:25:10.878Z,6.50
2018-12-10T18:27:40.485Z,6.53
2018-12-10T18:30:12.136Z,6.55
2018-12-10T18:32:41.867Z,6.50
2018-12-10T18:35:12.037Z,6.36
2018-12-10T18:37:42.133Z,6.58
2018-12-10T18:40:13.301Z,6.64
2018-12-10T18:42:42.843Z,6.69
2018-12-10T18:45:17.488Z,6.65
2018-12-10T18:47:47.206Z,6.63
2018-12-10T18:50:16.910Z,6.53
2018-12-10T18:52:47.067Z,6.48
2018-12-10T18:55:17.048Z,6.58
2018-12-10T18:57:46.615Z,6.59
2018-12-10T19:00:16.034Z,6.57
2018-12-10T19:02:45.589Z,6.61
2018-12-10T19:05:16.103Z,6.60
2018-12-10T19:07:45.645Z,6.58
2018-12-10T19:10:15.204Z,6.63
2018-12-10T19:12:44.810Z,6.56
2018-12-10T19:15:14.273Z,6.79
2018-12-10T19:17:44.007Z,6.69
2018-12-10T19:20:14.374Z,6.86
2018-12-10T19:22:45.768Z,6.84
2018-12-10T19:25:15.404Z,6.75
2018-12-10T19:27:45.945Z,6.94
2018-12-10T19:30:16.193Z,6.72
2018-12-10T19:32:45.641Z,6.83
2018-12-10T19:35:15.215Z,6.66
2018-12-10T19:37:45.507Z,6.91
2018-12-10T19:40:15.241Z,7.00
2018-12-10T19:42:43.959Z,7.15
2018-12-10T19:45:13.936Z,7.03
2018-12-10T19:47:43.966Z,7.16
2018-12-10T19:50:12.694Z,7.03
2018-12-10T19:52:42.377Z,7.02
2018-12-10T19:55:12.009Z,7.15
2018-12-10T19:57:41.676Z,7.10
2018-12-10T20:00:12.374Z,7.23
2018-12-10T20:02:41.883Z,7.00
2018-12-10T20:05:10.666Z,7.01
2018-12-10T20:07:40.295Z,6.81
2018-12-10T20:10:11.209Z,7.10
2018-12-10T20:12:40.852Z,7.02
2018-12-10T20:15:10.903Z,7.15
2018-12-10T20:17:39.652Z,7.12
2018-12-10T20:20:10.611Z,7.22
2018-12-10T20:22:40.173Z,6.92
2018-12-10T20:25:09.707Z,6.98
2018-12-10T20:27:40.420Z,7.10
2018-12-10T20:30:10.228Z,7.00
2018-12-10T20:32:39.867Z,7.20
2018-12-10T20:35:09.663Z,7.29
2018-12-10T20:37:38.407Z,7.24
2018-12-10T20:40:07.530Z,7.20
2018-12-10T20:42:36.279Z,7.10
2018-12-10T20:45:05.982Z,7.16
2018-12-10T20:47:35.071Z,6.97
2018-12-10T20:50:04.579Z,6.98
2018-12-10T20:52:33.256Z,6.96
2018-12-10T20:55:03.011Z,7.11
2018-12-10T20:57:31.722Z,7.14
2018-12-10T21:00:00.494Z,7.18
2018-12-10T21:02:29.419Z,7.26
2018-12-10T21:04:59.173Z,7.00
2018-12-10T21:07:28.120Z,7.02
2018-12-10T21:09:56.831Z,7.04
2018-12-10T21:12:25.703Z,6.81
2018-12-10T21:15:00.173Z,6.95
2018-12-10T21:17:25.175Z,7.04
2018-12-10T21:19:54.880Z,6.87
2018-12-10T21:22:23.618Z,7.03
2018-12-10T21:24:52.391Z,7.08
2018-12-10T21:27:21.055Z,7.15
2018-12-10T21:29:49.732Z,7.26
2018-12-10T21:32:19.487Z,7.07
2018-12-10T21:34:48.235Z,7.07
2018-12-10T21:37:16.991Z,7.00
2018-12-10T21:39:45.758Z,7.15
2018-12-10T21:42:15.265Z,6.99
2018-12-10T21:44:44.007Z,6.99
2018-12-10T21:47:12.787Z,6.98
2018-12-10T21:49:41.485Z,6.78
2018-12-10T21:52:10.239Z,6.95
2018-12-10T21:54:38.893Z,7.02
2018-12-10T21:57:07.599Z,7.21
2018-12-10T21:59:36.332Z,6.87
2018-12-10T22:02:05.083Z,6.83
2018-12-10T22:04:34.579Z,6.94
2018-12-10T22:07:03.377Z,6.73
2018-12-10T22:09:32.138Z,6.68
2018-12-10T22:12:01.379Z,6.92
2018-12-10T22:14:30.517Z,7.14
2018-12-10T22:16:59.300Z,6.90
2018-12-10T22:19:28.011Z,6.93
2018-12-10T22:21:56.687Z,6.63
2018-12-10T22:24:25.733Z,6.44
2018-12-10T22:26:54.400Z,6.68
2018-12-10T22:29:23.079Z,6.79
2018-12-10T22:31:51.739Z,6.84
2018-12-10T22:34:20.499Z,6.99
2018-12-10T22:36:49.181Z,7.07
2018-12-10T22:39:17.882Z,7.19
2018-12-10T22:41:46.586Z,6.80
2018-12-10T22:44:15.328Z,6.86
2018-12-10T22:46:44.107Z,6.81
2018-12-10T22:49:12.799Z,6.72
2018-12-10T22:51:42.555Z,6.72
2018-12-10T22:54:11.327Z,6.49
2018-12-10T22:56:40.075Z,6.91
2018-12-10T22:59:09.714Z,6.90
2018-12-10T23:01:38.468Z,6.86
2018-12-10T23:04:07.258Z,6.73
2018-12-10T23:06:36.037Z,6.47
2018-12-10T23:09:07.088Z,6.82
2018-12-10T23:11:37.705Z,6.73
2018-12-10T23:14:06.487Z,6.66
2018-12-10T23:16:35.290Z,6.74
2018-12-10T23:19:04.014Z,6.59
2018-12-10T23:21:32.687Z,6.79
2018-12-10T23:24:01.378Z,6.41
2018-12-10T23:26:30.095Z,6.61
2018-12-10T23:28:58.775Z,6.56
2018-12-10T23:31:27.510Z,6.51
2018-12-10T23:33:56.270Z,6.40
2018-12-10T23:36:25.058Z,6.21
2018-12-10T23:38:53.774Z,6.54
2018-12-10T23:41:22.517Z,6.51
2018-12-10T23:43:51.171Z,6.64
2018-12-10T23:46:19.886Z,6.72
2018-12-10T23:48:48.555Z,6.50
2018-12-10T23:51:17.228Z,6.61
2018-12-10T23:53:45.907Z,6.50
2018-12-10T23:56:14.623Z,6.74
2018-12-10T23:58:43.298Z,6.79
